sensor_id;sensor_type;location;lat;lon;timestamp;temperature;humidity
1766;DHT22;880;52.452;8.656;2023-07-31T00:00:16;16.70;99.90
1766;DHT22;880;52.452;8.656;2023-07-31T00:02:43;16.70;99.90
1766;DHT22;880;52.452;8.656;2023-07-31T00:05:10;16.70;99.90
1766;DHT22;880;52.452;8.656;2023-07-31T00:07:37;16.70;99.90
1766;DHT22;880;52.452;8.656;2023-07-31T00:10:04;16.70;99.90
1766;DHT22;880;52.452;8.656;2023-07-31T00:12:31;16.70;99.90
1766;DHT22;880;52.452;8.656;2023-07-31T00:14:59;16.70;99.90
1766;DHT22;880;52.452;8.656;2023-07-31T00:17:26;16.70;99.90
1766;DHT22;880;52.452;8.656;2023-07-31T00:19:53;16.70;99.90
1766;DHT22;880;52.452;8.656;2023-07-31T00:22:20;16.70;99.90
1766;DHT22;880;52.452;8.656;2023-07-31T00:24:47;16.70;99.90
1766;DHT22;880;52.452;8.656;2023-07-31T00:27:14;16.70;99.90
1766;DHT22;880;52.452;8.656;2023-07-31T00:29:42;16.70;99.90
1766;DHT22;880;52.452;8.656;2023-07-31T00:32:09;16.70;99.90
1766;DHT22;880;52.452;8.656;2023-07-31T00:34:37;16.70;99.90
1766;DHT22;880;52.452;8.656;2023-07-31T00:37:04;16.70;99.90
1766;DHT22;880;52.452;8.656;2023-07-31T00:39:33;16.60;99.90
1766;DHT22;880;52.452;8.656;2023-07-31T00:42:00;16.60;99.90
1766;DHT22;880;52.452;8.656;2023-07-31T00:44:27;16.60;99.90
1766;DHT22;880;52.452;8.656;2023-07-31T00:46:55;16.60;99.90
1766;DHT22;880;52.452;8.656;2023-07-31T00:49:30;16.60;99.90
1766;DHT22;880;52.452;8.656;2023-07-31T00:51:57;16.60;99.90
1766;DHT22;880;52.452;8.656;2023-07-31T00:54:25;16.60;99.90
1766;DHT22;880;52.452;8.656;2023-07-31T00:56:53;16.60;99.90
1766;DHT22;880;52.452;8.656;2023-07-31T00:59:21;16.60;99.90
1766;DHT22;880;52.452;8.656;2023-07-31T01:01:48;16.60;99.90
1766;DHT22;880;52.452;8.656;2023-07-31T01:04:16;16.60;99.90
1766;DHT22;880;52.452;8.656;2023-07-31T01:09:19;16.50;99.90
1766;DHT22;880;52.452;8.656;2023-07-31T01:12:04;16.40;99.90
1766;DHT22;880;52.452;8.656;2023-07-31T01:14:33;16.40;99.90
1766;DHT22;880;52.452;8.656;2023-07-31T01:17:00;16.30;99.90
1766;DHT22;880;52.452;8.656;2023-07-31T01:19:28;16.30;99.90
1766;DHT22;880;52.452;8.656;2023-07-31T01:31:53;16.10;99.90
1766;DHT22;880;52.452;8.656;2023-07-31T01:34:22;16.20;99.90
1766;DHT22;880;52.452;8.656;2023-07-31T01:36:49;16.10;99.90
1766;DHT22;880;52.452;8.656;2023-07-31T01:39:16;16.20;99.90
1766;DHT22;880;52.452;8.656;2023-07-31T01:41:43;16.20;99.90
1766;DHT22;880;52.452;8.656;2023-07-31T01:44:10;16.20;99.90
1766;DHT22;880;52.452;8.656;2023-07-31T01:46:37;16.20;99.90
1766;DHT22;880;52.452;8.656;2023-07-31T01:49:05;16.20;99.90
1766;DHT22;880;52.452;8.656;2023-07-31T01:51:33;16.20;99.90
1766;DHT22;880;52.452;8.656;2023-07-31T01:54:01;16.10;99.90
1766;DHT22;880;52.452;8.656;2023-07-31T01:56:29;16.20;99.90
1766;DHT22;880;52.452;8.656;2023-07-31T01:58:56;16.20;99.90
1766;DHT22;880;52.452;8.656;2023-07-31T02:01:23;16.20;99.90
1766;DHT22;880;52.452;8.656;2023-07-31T02:03:50;16.30;99.90
1766;DHT22;880;52.452;8.656;2023-07-31T02:06:17;16.30;99.90
1766;DHT22;880;52.452;8.656;2023-07-31T02:08:44;16.30;99.90
1766;DHT22;880;52.452;8.656;2023-07-31T02:11:12;16.30;99.90
1766;DHT22;880;52.452;8.656;2023-07-31T02:13:39;16.20;99.90
1766;DHT22;880;52.452;8.656;2023-07-31T02:16:06;16.20;99.90
1766;DHT22;880;52.452;8.656;2023-07-31T02:18:33;16.10;99.90
1766;DHT22;880;52.452;8.656;2023-07-31T02:21:01;16.10;99.90
1766;DHT22;880;52.452;8.656;2023-07-31T02:23:28;16.10;99.90
1766;DHT22;880;52.452;8.656;2023-07-31T02:25:55;16.10;99.90
1766;DHT22;880;52.452;8.656;2023-07-31T02:28:22;16.10;99.90
1766;DHT22;880;52.452;8.656;2023-07-31T02:30:50;16.10;99.90
1766;DHT22;880;52.452;8.656;2023-07-31T02:33:18;16.00;99.90
1766;DHT22;880;52.452;8.656;2023-07-31T02:35:46;16.00;99.90
1766;DHT22;880;52.452;8.656;2023-07-31T02:38:13;16.00;99.90
1766;DHT22;880;52.452;8.656;2023-07-31T02:40:40;16.00;99.90
1766;DHT22;880;52.452;8.656;2023-07-31T02:43:08;16.00;99.90
1766;DHT22;880;52.452;8.656;2023-07-31T02:45:38;16.10;99.90
1766;DHT22;880;52.452;8.656;2023-07-31T02:48:05;16.10;99.90
1766;DHT22;880;52.452;8.656;2023-07-31T02:50:33;16.10;99.90
1766;DHT22;880;52.452;8.656;2023-07-31T02:53:00;16.10;99.90
1766;DHT22;880;52.452;8.656;2023-07-31T02:55:27;16.10;99.90
1766;DHT22;880;52.452;8.656;2023-07-31T02:57:54;16.00;99.90
1766;DHT22;880;52.452;8.656;2023-07-31T03:00:21;16.00;99.90
1766;DHT22;880;52.452;8.656;2023-07-31T03:02:48;16.00;99.90
1766;DHT22;880;52.452;8.656;2023-07-31T03:05:15;16.00;99.90
1766;DHT22;880;52.452;8.656;2023-07-31T03:07:42;15.90;99.90
1766;DHT22;880;52.452;8.656;2023-07-31T03:10:09;16.00;99.90
1766;DHT22;880;52.452;8.656;2023-07-31T03:12:36;15.90;99.90
1766;DHT22;880;52.452;8.656;2023-07-31T03:15:04;15.90;99.90
1766;DHT22;880;52.452;8.656;2023-07-31T03:17:31;15.80;99.90
1766;DHT22;880;52.452;8.656;2023-07-31T03:19:58;15.80;99.90
1766;DHT22;880;52.452;8.656;2023-07-31T03:22:25;15.80;99.90
1766;DHT22;880;52.452;8.656;2023-07-31T03:24:52;15.70;99.90
1766;DHT22;880;52.452;8.656;2023-07-31T03:27:19;15.70;99.90
1766;DHT22;880;52.452;8.656;2023-07-31T03:29:46;15.70;99.90
1766;DHT22;880;52.452;8.656;2023-07-31T03:32:13;15.70;99.90
1766;DHT22;880;52.452;8.656;2023-07-31T03:34:40;15.70;99.90
1766;DHT22;880;52.452;8.656;2023-07-31T03:37:07;15.70;99.90
1766;DHT22;880;52.452;8.656;2023-07-31T03:39:35;15.70;99.90
1766;DHT22;880;52.452;8.656;2023-07-31T03:42:03;15.60;99.90
1766;DHT22;880;52.452;8.656;2023-07-31T03:44:30;15.60;99.90
1766;DHT22;880;52.452;8.656;2023-07-31T03:46:57;15.60;99.90
1766;DHT22;880;52.452;8.656;2023-07-31T03:49:24;15.50;99.90
1766;DHT22;880;52.452;8.656;2023-07-31T03:51:51;15.60;99.90
1766;DHT22;880;52.452;8.656;2023-07-31T03:54:18;15.60;99.90
1766;DHT22;880;52.452;8.656;2023-07-31T03:56:45;15.60;99.90
1766;DHT22;880;52.452;8.656;2023-07-31T03:59:12;15.50;99.90
1766;DHT22;880;52.452;8.656;2023-07-31T04:01:39;15.50;99.90
1766;DHT22;880;52.452;8.656;2023-07-31T04:04:06;15.50;99.90
1766;DHT22;880;52.452;8.656;2023-07-31T04:06:33;15.50;99.90
1766;DHT22;880;52.452;8.656;2023-07-31T04:09:00;15.50;99.90
1766;DHT22;880;52.452;8.656;2023-07-31T04:11:26;15.50;99.90
1766;DHT22;880;52.452;8.656;2023-07-31T04:13:54;15.50;99.90
1766;DHT22;880;52.452;8.656;2023-07-31T04:16:20;15.50;99.90
1766;DHT22;880;52.452;8.656;2023-07-31T04:18:48;15.50;99.90
1766;DHT22;880;52.452;8.656;2023-07-31T04:21:15;15.50;99.90
1766;DHT22;880;52.452;8.656;2023-07-31T04:23:42;15.60;99.90
1766;DHT22;880;52.452;8.656;2023-07-31T04:26:08;15.60;99.90
1766;DHT22;880;52.452;8.656;2023-07-31T04:28:36;15.60;99.90
1766;DHT22;880;52.452;8.656;2023-07-31T04:31:03;15.60;99.90
1766;DHT22;880;52.452;8.656;2023-07-31T04:33:30;15.60;99.90
1766;DHT22;880;52.452;8.656;2023-07-31T04:35:59;15.50;99.90
1766;DHT22;880;52.452;8.656;2023-07-31T04:38:26;15.60;99.90
1766;DHT22;880;52.452;8.656;2023-07-31T04:40:53;15.50;99.90
1766;DHT22;880;52.452;8.656;2023-07-31T04:43:20;15.50;99.90
1766;DHT22;880;52.452;8.656;2023-07-31T04:45:47;15.60;99.90
1766;DHT22;880;52.452;8.656;2023-07-31T04:48:17;15.60;99.90
1766;DHT22;880;52.452;8.656;2023-07-31T04:50:44;15.60;99.90
1766;DHT22;880;52.452;8.656;2023-07-31T04:53:11;15.60;99.90
1766;DHT22;880;52.452;8.656;2023-07-31T04:55:38;15.60;99.90
1766;DHT22;880;52.452;8.656;2023-07-31T04:58:05;15.60;99.90
1766;DHT22;880;52.452;8.656;2023-07-31T05:00:32;15.60;99.90
1766;DHT22;880;52.452;8.656;2023-07-31T05:02:59;15.60;99.90
1766;DHT22;880;52.452;8.656;2023-07-31T05:05:26;15.60;99.90
1766;DHT22;880;52.452;8.656;2023-07-31T05:07:53;15.70;99.90
1766;DHT22;880;52.452;8.656;2023-07-31T05:10:20;15.70;99.90
1766;DHT22;880;52.452;8.656;2023-07-31T05:12:47;15.70;99.90
1766;DHT22;880;52.452;8.656;2023-07-31T05:15:15;15.70;99.90
1766;DHT22;880;52.452;8.656;2023-07-31T05:17:42;15.80;99.90
1766;DHT22;880;52.452;8.656;2023-07-31T05:20:09;15.80;99.90
1766;DHT22;880;52.452;8.656;2023-07-31T05:22:37;15.80;99.90
1766;DHT22;880;52.452;8.656;2023-07-31T05:25:04;15.80;99.90
1766;DHT22;880;52.452;8.656;2023-07-31T05:27:32;16.00;99.90
1766;DHT22;880;52.452;8.656;2023-07-31T05:29:59;16.00;99.90
1766;DHT22;880;52.452;8.656;2023-07-31T05:32:26;16.00;99.90
1766;DHT22;880;52.452;8.656;2023-07-31T05:34:54;16.10;99.90
1766;DHT22;880;52.452;8.656;2023-07-31T05:37:21;16.00;99.90
1766;DHT22;880;52.452;8.656;2023-07-31T05:39:49;16.10;99.90
1766;DHT22;880;52.452;8.656;2023-07-31T05:42:16;16.00;99.90
1766;DHT22;880;52.452;8.656;2023-07-31T05:44:43;16.00;99.90
1766;DHT22;880;52.452;8.656;2023-07-31T05:47:10;16.00;99.90
1766;DHT22;880;52.452;8.656;2023-07-31T05:49:37;16.00;99.90
1766;DHT22;880;52.452;8.656;2023-07-31T05:52:04;16.00;99.90
1766;DHT22;880;52.452;8.656;2023-07-31T05:54:32;16.10;99.90
1766;DHT22;880;52.452;8.656;2023-07-31T05:56:59;16.10;99.90
1766;DHT22;880;52.452;8.656;2023-07-31T05:59:26;16.20;99.90
1766;DHT22;880;52.452;8.656;2023-07-31T06:01:53;16.10;99.90
1766;DHT22;880;52.452;8.656;2023-07-31T06:04:20;16.10;99.90
1766;DHT22;880;52.452;8.656;2023-07-31T06:06:51;16.10;99.90
1766;DHT22;880;52.452;8.656;2023-07-31T06:09:18;16.20;99.90
1766;DHT22;880;52.452;8.656;2023-07-31T06:11:46;16.20;99.90
1766;DHT22;880;52.452;8.656;2023-07-31T06:14:13;16.20;99.90
1766;DHT22;880;52.452;8.656;2023-07-31T06:16:41;16.20;99.90
1766;DHT22;880;52.452;8.656;2023-07-31T06:19:08;16.10;99.90
1766;DHT22;880;52.452;8.656;2023-07-31T06:21:39;16.20;99.90
1766;DHT22;880;52.452;8.656;2023-07-31T06:24:08;16.20;99.90
1766;DHT22;880;52.452;8.656;2023-07-31T06:26:35;16.20;99.90
1766;DHT22;880;52.452;8.656;2023-07-31T06:29:03;16.20;99.90
1766;DHT22;880;52.452;8.656;2023-07-31T06:31:30;16.20;99.90
1766;DHT22;880;52.452;8.656;2023-07-31T06:33:57;16.20;99.90
1766;DHT22;880;52.452;8.656;2023-07-31T06:36:24;16.20;99.90
1766;DHT22;880;52.452;8.656;2023-07-31T06:38:51;16.20;99.90
1766;DHT22;880;52.452;8.656;2023-07-31T06:41:18;16.20;99.90
1766;DHT22;880;52.452;8.656;2023-07-31T06:43:46;16.20;99.90
1766;DHT22;880;52.452;8.656;2023-07-31T06:46:13;16.30;99.90
1766;DHT22;880;52.452;8.656;2023-07-31T06:48:40;16.30;99.90
1766;DHT22;880;52.452;8.656;2023-07-31T06:51:07;16.30;99.90
1766;DHT22;880;52.452;8.656;2023-07-31T06:53:34;16.40;99.90
1766;DHT22;880;52.452;8.656;2023-07-31T06:56:01;16.40;99.90
1766;DHT22;880;52.452;8.656;2023-07-31T06:58:28;16.40;99.90
1766;DHT22;880;52.452;8.656;2023-07-31T07:00:55;16.40;99.90
1766;DHT22;880;52.452;8.656;2023-07-31T07:03:22;16.50;99.90
1766;DHT22;880;52.452;8.656;2023-07-31T07:05:49;16.60;99.90
1766;DHT22;880;52.452;8.656;2023-07-31T07:08:16;16.60;99.90
1766;DHT22;880;52.452;8.656;2023-07-31T07:10:44;16.70;99.90
1766;DHT22;880;52.452;8.656;2023-07-31T07:13:11;16.80;99.90
1766;DHT22;880;52.452;8.656;2023-07-31T07:15:39;16.90;99.90
1766;DHT22;880;52.452;8.656;2023-07-31T07:18:06;16.90;99.90
1766;DHT22;880;52.452;8.656;2023-07-31T07:20:34;17.00;99.90
1766;DHT22;880;52.452;8.656;2023-07-31T07:23:01;17.00;99.90
1766;DHT22;880;52.452;8.656;2023-07-31T07:25:28;17.10;99.90
1766;DHT22;880;52.452;8.656;2023-07-31T07:27:55;17.20;99.90
1766;DHT22;880;52.452;8.656;2023-07-31T07:30:22;17.20;99.90
1766;DHT22;880;52.452;8.656;2023-07-31T07:32:51;17.30;99.90
1766;DHT22;880;52.452;8.656;2023-07-31T07:35:18;17.40;99.90
1766;DHT22;880;52.452;8.656;2023-07-31T07:37:48;17.40;99.90
1766;DHT22;880;52.452;8.656;2023-07-31T07:40:19;17.50;99.90
1766;DHT22;880;52.452;8.656;2023-07-31T07:42:46;17.50;99.90
1766;DHT22;880;52.452;8.656;2023-07-31T07:45:13;17.70;99.90
1766;DHT22;880;52.452;8.656;2023-07-31T07:47:41;17.70;99.90
1766;DHT22;880;52.452;8.656;2023-07-31T07:50:09;17.60;99.90
1766;DHT22;880;52.452;8.656;2023-07-31T07:52:36;17.60;99.90
1766;DHT22;880;52.452;8.656;2023-07-31T07:55:03;17.50;99.90
1766;DHT22;880;52.452;8.656;2023-07-31T07:57:30;17.50;99.90
1766;DHT22;880;52.452;8.656;2023-07-31T07:59:57;17.50;99.90
1766;DHT22;880;52.452;8.656;2023-07-31T08:02:24;17.40;99.90
1766;DHT22;880;52.452;8.656;2023-07-31T08:04:51;17.40;99.90
1766;DHT22;880;52.452;8.656;2023-07-31T08:07:18;17.40;99.90
1766;DHT22;880;52.452;8.656;2023-07-31T08:09:45;17.40;99.90
1766;DHT22;880;52.452;8.656;2023-07-31T08:12:12;17.40;99.90
1766;DHT22;880;52.452;8.656;2023-07-31T08:14:39;17.40;99.90
1766;DHT22;880;52.452;8.656;2023-07-31T08:17:07;17.40;99.90
1766;DHT22;880;52.452;8.656;2023-07-31T08:19:34;17.40;99.90
1766;DHT22;880;52.452;8.656;2023-07-31T08:22:01;17.40;99.90
1766;DHT22;880;52.452;8.656;2023-07-31T08:24:28;17.50;99.90
1766;DHT22;880;52.452;8.656;2023-07-31T08:26:55;17.60;99.90
1766;DHT22;880;52.452;8.656;2023-07-31T08:29:22;17.70;99.90
1766;DHT22;880;52.452;8.656;2023-07-31T08:31:49;17.70;99.90
1766;DHT22;880;52.452;8.656;2023-07-31T08:34:16;17.70;99.90
1766;DHT22;880;52.452;8.656;2023-07-31T08:36:43;17.70;99.90
1766;DHT22;880;52.452;8.656;2023-07-31T08:39:10;17.70;99.90
1766;DHT22;880;52.452;8.656;2023-07-31T08:41:38;17.70;99.90
1766;DHT22;880;52.452;8.656;2023-07-31T08:44:08;17.70;99.90
1766;DHT22;880;52.452;8.656;2023-07-31T08:46:37;17.70;99.90
1766;DHT22;880;52.452;8.656;2023-07-31T08:49:05;17.70;99.90
1766;DHT22;880;52.452;8.656;2023-07-31T08:51:34;17.70;99.90
1766;DHT22;880;52.452;8.656;2023-07-31T08:54:02;17.70;99.90
1766;DHT22;880;52.452;8.656;2023-07-31T08:56:32;17.70;99.90
1766;DHT22;880;52.452;8.656;2023-07-31T08:59:02;17.70;99.90
1766;DHT22;880;52.452;8.656;2023-07-31T09:01:32;17.80;99.90
1766;DHT22;880;52.452;8.656;2023-07-31T09:04:03;17.80;99.90
1766;DHT22;880;52.452;8.656;2023-07-31T09:06:31;17.90;99.90
1766;DHT22;880;52.452;8.656;2023-07-31T09:08:58;17.90;99.90
1766;DHT22;880;52.452;8.656;2023-07-31T09:11:26;17.80;99.90
1766;DHT22;880;52.452;8.656;2023-07-31T09:13:56;17.80;99.90
1766;DHT22;880;52.452;8.656;2023-07-31T09:16:30;17.80;99.90
1766;DHT22;880;52.452;8.656;2023-07-31T09:18:58;17.80;99.90
1766;DHT22;880;52.452;8.656;2023-07-31T09:21:28;17.80;99.90
1766;DHT22;880;52.452;8.656;2023-07-31T09:23:55;17.90;99.90
1766;DHT22;880;52.452;8.656;2023-07-31T09:26:36;17.90;99.90
1766;DHT22;880;52.452;8.656;2023-07-31T09:29:05;18.00;99.90
1766;DHT22;880;52.452;8.656;2023-07-31T09:31:42;18.00;99.90
1766;DHT22;880;52.452;8.656;2023-07-31T09:34:11;18.00;99.90
1766;DHT22;880;52.452;8.656;2023-07-31T09:36:44;18.00;99.90
1766;DHT22;880;52.452;8.656;2023-07-31T09:39:13;18.00;99.90
1766;DHT22;880;52.452;8.656;2023-07-31T09:41:43;17.90;99.90
1766;DHT22;880;52.452;8.656;2023-07-31T09:44:13;17.90;99.90
1766;DHT22;880;52.452;8.656;2023-07-31T09:46:40;17.80;99.90
1766;DHT22;880;52.452;8.656;2023-07-31T09:49:12;17.80;99.90
1766;DHT22;880;52.452;8.656;2023-07-31T09:51:41;17.70;99.90
1766;DHT22;880;52.452;8.656;2023-07-31T09:54:15;17.70;99.90
1766;DHT22;880;52.452;8.656;2023-07-31T09:56:48;17.70;99.90
1766;DHT22;880;52.452;8.656;2023-07-31T09:59:17;17.70;99.90
1766;DHT22;880;52.452;8.656;2023-07-31T10:01:50;17.70;99.90
1766;DHT22;880;52.452;8.656;2023-07-31T10:04:18;17.70;99.90
1766;DHT22;880;52.452;8.656;2023-07-31T10:06:53;17.70;99.90
1766;DHT22;880;52.452;8.656;2023-07-31T10:09:25;17.80;99.90
1766;DHT22;880;52.452;8.656;2023-07-31T10:12:00;17.90;99.90
1766;DHT22;880;52.452;8.656;2023-07-31T10:14:27;17.90;99.90
1766;DHT22;880;52.452;8.656;2023-07-31T10:16:57;17.90;99.90
1766;DHT22;880;52.452;8.656;2023-07-31T10:19:24;17.90;99.90
1766;DHT22;880;52.452;8.656;2023-07-31T10:21:51;17.90;99.90
1766;DHT22;880;52.452;8.656;2023-07-31T10:24:19;18.00;99.90
1766;DHT22;880;52.452;8.656;2023-07-31T10:26:47;18.20;99.90
1766;DHT22;880;52.452;8.656;2023-07-31T10:29:16;18.10;99.90
1766;DHT22;880;52.452;8.656;2023-07-31T10:31:45;18.10;99.90
1766;DHT22;880;52.452;8.656;2023-07-31T10:34:14;18.10;99.90
1766;DHT22;880;52.452;8.656;2023-07-31T10:36:41;18.20;99.90
1766;DHT22;880;52.452;8.656;2023-07-31T10:39:33;18.20;99.90
1766;DHT22;880;52.452;8.656;2023-07-31T10:42:14;18.20;99.90
1766;DHT22;880;52.452;8.656;2023-07-31T10:44:46;18.20;99.90
1766;DHT22;880;52.452;8.656;2023-07-31T10:47:17;18.30;99.90
1766;DHT22;880;52.452;8.656;2023-07-31T10:49:45;18.10;99.90
1766;DHT22;880;52.452;8.656;2023-07-31T10:52:13;18.00;99.90
1766;DHT22;880;52.452;8.656;2023-07-31T10:54:40;18.10;99.90
1766;DHT22;880;52.452;8.656;2023-07-31T10:57:25;18.10;99.90
1766;DHT22;880;52.452;8.656;2023-07-31T11:00:22;18.10;99.90
1766;DHT22;880;52.452;8.656;2023-07-31T11:02:57;18.10;99.90
1766;DHT22;880;52.452;8.656;2023-07-31T11:05:50;18.10;99.90
1766;DHT22;880;52.452;8.656;2023-07-31T11:08:33;18.10;99.90
1766;DHT22;880;52.452;8.656;2023-07-31T11:13:43;18.10;99.90
1766;DHT22;880;52.452;8.656;2023-07-31T11:16:13;18.10;99.90
1766;DHT22;880;52.452;8.656;2023-07-31T11:18:43;18.00;99.90
1766;DHT22;880;52.452;8.656;2023-07-31T11:21:22;17.90;99.90
1766;DHT22;880;52.452;8.656;2023-07-31T11:23:53;17.90;99.90
1766;DHT22;880;52.452;8.656;2023-07-31T11:26:25;17.80;99.90
1766;DHT22;880;52.452;8.656;2023-07-31T11:28:52;17.80;99.90
1766;DHT22;880;52.452;8.656;2023-07-31T11:31:19;17.80;99.90
1766;DHT22;880;52.452;8.656;2023-07-31T11:33:46;17.90;99.90
1766;DHT22;880;52.452;8.656;2023-07-31T11:36:20;17.90;99.90
1766;DHT22;880;52.452;8.656;2023-07-31T11:38:47;18.00;99.90
1766;DHT22;880;52.452;8.656;2023-07-31T11:41:16;18.00;99.90
1766;DHT22;880;52.452;8.656;2023-07-31T11:43:44;18.00;99.90
1766;DHT22;880;52.452;8.656;2023-07-31T11:46:13;18.00;99.90
1766;DHT22;880;52.452;8.656;2023-07-31T11:48:42;18.00;99.90
1766;DHT22;880;52.452;8.656;2023-07-31T11:51:10;18.10;99.90
1766;DHT22;880;52.452;8.656;2023-07-31T11:56:20;18.20;99.90
1766;DHT22;880;52.452;8.656;2023-07-31T11:58:55;18.30;99.90
1766;DHT22;880;52.452;8.656;2023-07-31T12:01:27;18.40;99.90
1766;DHT22;880;52.452;8.656;2023-07-31T12:03:55;18.40;99.90
1766;DHT22;880;52.452;8.656;2023-07-31T12:06:33;18.50;99.90
1766;DHT22;880;52.452;8.656;2023-07-31T12:09:04;18.50;99.90
1766;DHT22;880;52.452;8.656;2023-07-31T12:11:46;18.60;99.90
1766;DHT22;880;52.452;8.656;2023-07-31T12:14:29;18.60;99.90
1766;DHT22;880;52.452;8.656;2023-07-31T12:17:00;18.60;99.90
1766;DHT22;880;52.452;8.656;2023-07-31T12:19:28;18.50;99.90
1766;DHT22;880;52.452;8.656;2023-07-31T12:21:58;18.60;99.90
1766;DHT22;880;52.452;8.656;2023-07-31T12:24:26;18.50;99.90
1766;DHT22;880;52.452;8.656;2023-07-31T12:26:53;18.50;99.90
1766;DHT22;880;52.452;8.656;2023-07-31T12:29:21;18.50;99.90
1766;DHT22;880;52.452;8.656;2023-07-31T12:31:48;18.60;99.90
1766;DHT22;880;52.452;8.656;2023-07-31T12:34:20;18.60;99.90
1766;DHT22;880;52.452;8.656;2023-07-31T12:36:48;18.60;99.90
1766;DHT22;880;52.452;8.656;2023-07-31T12:39:17;18.60;99.90
1766;DHT22;880;52.452;8.656;2023-07-31T12:41:44;18.60;99.90
1766;DHT22;880;52.452;8.656;2023-07-31T12:44:11;18.60;99.90
1766;DHT22;880;52.452;8.656;2023-07-31T12:46:41;18.70;99.90
1766;DHT22;880;52.452;8.656;2023-07-31T12:49:08;18.60;99.90
1766;DHT22;880;52.452;8.656;2023-07-31T12:51:35;18.60;99.90
1766;DHT22;880;52.452;8.656;2023-07-31T12:54:03;18.60;99.90
1766;DHT22;880;52.452;8.656;2023-07-31T12:56:30;18.60;99.90
1766;DHT22;880;52.452;8.656;2023-07-31T12:58:59;18.70;99.90
1766;DHT22;880;52.452;8.656;2023-07-31T13:01:26;18.70;99.90
1766;DHT22;880;52.452;8.656;2023-07-31T13:03:53;18.80;99.90
1766;DHT22;880;52.452;8.656;2023-07-31T13:06:20;18.80;99.90
1766;DHT22;880;52.452;8.656;2023-07-31T13:08:47;18.90;99.90
1766;DHT22;880;52.452;8.656;2023-07-31T13:11:14;18.80;99.90
1766;DHT22;880;52.452;8.656;2023-07-31T13:13:41;18.90;99.90
1766;DHT22;880;52.452;8.656;2023-07-31T13:16:08;18.90;99.90
1766;DHT22;880;52.452;8.656;2023-07-31T13:18:35;18.90;99.90
1766;DHT22;880;52.452;8.656;2023-07-31T13:21:02;18.90;99.90
1766;DHT22;880;52.452;8.656;2023-07-31T13:23:29;18.90;99.90
1766;DHT22;880;52.452;8.656;2023-07-31T13:25:57;19.00;99.90
1766;DHT22;880;52.452;8.656;2023-07-31T13:28:24;19.00;99.90
1766;DHT22;880;52.452;8.656;2023-07-31T13:30:51;18.90;99.90
1766;DHT22;880;52.452;8.656;2023-07-31T13:33:18;18.90;99.90
1766;DHT22;880;52.452;8.656;2023-07-31T13:36:02;18.90;99.90
1766;DHT22;880;52.452;8.656;2023-07-31T13:38:29;18.90;99.90
1766;DHT22;880;52.452;8.656;2023-07-31T13:40:56;19.00;99.90
1766;DHT22;880;52.452;8.656;2023-07-31T13:43:23;19.00;99.90
1766;DHT22;880;52.452;8.656;2023-07-31T13:45:50;19.10;99.90
1766;DHT22;880;52.452;8.656;2023-07-31T13:48:17;19.10;99.90
1766;DHT22;880;52.452;8.656;2023-07-31T13:50:44;19.20;99.90
1766;DHT22;880;52.452;8.656;2023-07-31T13:53:11;19.20;99.90
1766;DHT22;880;52.452;8.656;2023-07-31T13:55:38;19.30;99.90
1766;DHT22;880;52.452;8.656;2023-07-31T13:58:05;19.30;99.90
1766;DHT22;880;52.452;8.656;2023-07-31T14:00:32;19.30;99.90
1766;DHT22;880;52.452;8.656;2023-07-31T14:02:59;19.30;99.90
1766;DHT22;880;52.452;8.656;2023-07-31T14:05:26;19.30;99.90
1766;DHT22;880;52.452;8.656;2023-07-31T14:07:53;19.20;99.90
1766;DHT22;880;52.452;8.656;2023-07-31T14:10:26;19.30;99.90
1766;DHT22;880;52.452;8.656;2023-07-31T14:12:53;19.30;99.90
1766;DHT22;880;52.452;8.656;2023-07-31T14:15:20;19.20;99.90
1766;DHT22;880;52.452;8.656;2023-07-31T14:17:48;19.20;99.90
1766;DHT22;880;52.452;8.656;2023-07-31T14:20:15;19.30;99.90
1766;DHT22;880;52.452;8.656;2023-07-31T14:22:42;19.30;99.90
1766;DHT22;880;52.452;8.656;2023-07-31T14:25:09;19.30;99.90
1766;DHT22;880;52.452;8.656;2023-07-31T14:27:37;19.30;99.90
1766;DHT22;880;52.452;8.656;2023-07-31T14:30:04;19.30;99.90
1766;DHT22;880;52.452;8.656;2023-07-31T14:32:32;19.40;99.90
1766;DHT22;880;52.452;8.656;2023-07-31T14:34:59;19.40;99.90
1766;DHT22;880;52.452;8.656;2023-07-31T14:37:26;19.50;99.90
1766;DHT22;880;52.452;8.656;2023-07-31T14:39:54;19.50;99.90
1766;DHT22;880;52.452;8.656;2023-07-31T14:42:22;19.50;99.90
1766;DHT22;880;52.452;8.656;2023-07-31T14:44:49;19.50;99.90
1766;DHT22;880;52.452;8.656;2023-07-31T14:47:16;19.50;99.90
1766;DHT22;880;52.452;8.656;2023-07-31T14:49:43;19.40;99.90
1766;DHT22;880;52.452;8.656;2023-07-31T14:52:10;19.40;99.90
1766;DHT22;880;52.452;8.656;2023-07-31T14:54:37;19.30;99.90
1766;DHT22;880;52.452;8.656;2023-07-31T14:57:05;19.30;99.90
1766;DHT22;880;52.452;8.656;2023-07-31T14:59:32;19.30;99.90
1766;DHT22;880;52.452;8.656;2023-07-31T15:01:59;19.50;99.90
1766;DHT22;880;52.452;8.656;2023-07-31T15:04:26;19.60;99.90
1766;DHT22;880;52.452;8.656;2023-07-31T15:06:53;19.60;99.90
1766;DHT22;880;52.452;8.656;2023-07-31T15:09:21;19.70;99.90
1766;DHT22;880;52.452;8.656;2023-07-31T15:11:48;19.60;99.90
1766;DHT22;880;52.452;8.656;2023-07-31T15:14:15;19.60;99.90
1766;DHT22;880;52.452;8.656;2023-07-31T15:16:43;19.60;99.90
1766;DHT22;880;52.452;8.656;2023-07-31T15:19:10;19.60;99.90
1766;DHT22;880;52.452;8.656;2023-07-31T15:21:38;19.70;99.90
1766;DHT22;880;52.452;8.656;2023-07-31T15:24:06;19.70;99.90
1766;DHT22;880;52.452;8.656;2023-07-31T15:26:33;19.80;99.90
1766;DHT22;880;52.452;8.656;2023-07-31T15:29:02;19.80;99.90
1766;DHT22;880;52.452;8.656;2023-07-31T15:31:35;19.80;99.90
1766;DHT22;880;52.452;8.656;2023-07-31T15:34:02;19.90;99.90
1766;DHT22;880;52.452;8.656;2023-07-31T15:36:30;19.90;99.90
1766;DHT22;880;52.452;8.656;2023-07-31T15:38:58;19.90;99.90
1766;DHT22;880;52.452;8.656;2023-07-31T15:41:25;19.90;99.90
1766;DHT22;880;52.452;8.656;2023-07-31T15:43:52;19.90;99.90
1766;DHT22;880;52.452;8.656;2023-07-31T15:46:19;19.90;99.90
1766;DHT22;880;52.452;8.656;2023-07-31T15:48:46;19.90;99.90
1766;DHT22;880;52.452;8.656;2023-07-31T15:51:13;19.80;99.90
1766;DHT22;880;52.452;8.656;2023-07-31T15:53:41;19.70;99.90
1766;DHT22;880;52.452;8.656;2023-07-31T15:56:07;19.70;99.90
1766;DHT22;880;52.452;8.656;2023-07-31T15:58:34;19.60;99.90
1766;DHT22;880;52.452;8.656;2023-07-31T16:01:01;19.50;99.90
1766;DHT22;880;52.452;8.656;2023-07-31T16:03:29;19.50;99.90
1766;DHT22;880;52.452;8.656;2023-07-31T16:05:56;19.50;99.90
1766;DHT22;880;52.452;8.656;2023-07-31T16:08:23;19.50;99.90
1766;DHT22;880;52.452;8.656;2023-07-31T16:10:50;19.50;99.90
1766;DHT22;880;52.452;8.656;2023-07-31T16:13:17;19.60;99.90
1766;DHT22;880;52.452;8.656;2023-07-31T16:15:44;19.60;99.90
1766;DHT22;880;52.452;8.656;2023-07-31T16:18:11;19.50;99.90
1766;DHT22;880;52.452;8.656;2023-07-31T16:20:38;19.60;99.90
1766;DHT22;880;52.452;8.656;2023-07-31T16:23:05;19.60;99.90
1766;DHT22;880;52.452;8.656;2023-07-31T16:25:33;19.60;99.90
1766;DHT22;880;52.452;8.656;2023-07-31T16:28:00;19.60;99.90
1766;DHT22;880;52.452;8.656;2023-07-31T16:30:27;19.50;99.90
1766;DHT22;880;52.452;8.656;2023-07-31T16:32:54;19.50;99.90
1766;DHT22;880;52.452;8.656;2023-07-31T16:35:21;19.50;99.90
1766;DHT22;880;52.452;8.656;2023-07-31T16:37:48;19.50;99.90
1766;DHT22;880;52.452;8.656;2023-07-31T16:40:15;19.50;99.90